createdAt,value
2022-11-07T00:01:47.012Z,100285.59
2022-11-07T00:04:16.769Z,100294.72
2022-11-07T00:06:43.609Z,100286.31
2022-11-07T00:09:10.632Z,100297.25
2022-11-07T00:11:37.589Z,100284.44
2022-11-07T00:14:04.494Z,100293.03
2022-11-07T00:16:33.056Z,100281.66
2022-11-07T00:18:59.845Z,100286.13
2022-11-07T00:21:29.280Z,100292.75
2022-11-07T00:23:56.319Z,100298.22
2022-11-07T00:26:23.490Z,100293.25
2022-11-07T00:28:50.483Z,100290.72
2022-11-07T00:31:19.992Z,100290.13
2022-11-07T00:33:46.912Z,100289.88
2022-11-07T00:36:28.922Z,100306.31
2022-11-07T00:38:56.489Z,100301.75
2022-11-07T00:41:25.948Z,100301.38
2022-11-07T00:43:53.621Z,100322.69
2022-11-07T00:46:27.832Z,100303.72
2022-11-07T00:48:54.784Z,100301.44
2022-11-07T00:51:26.684Z,100305.44
2022-11-07T00:53:54.405Z,100327.22
2022-11-07T00:56:24.594Z,100320.97
2022-11-07T00:58:59.779Z,100320.13
2022-11-07T01:01:34.287Z,100327.66
2022-11-07T01:04:22.655Z,100314.81
2022-11-07T01:06:49.754Z,100324.06
2022-11-07T01:09:21.795Z,100321.50
2022-11-07T01:11:49.612Z,100313.91
2022-11-07T01:14:19.012Z,100321.38
2022-11-07T01:16:46.012Z,100324.38
2022-11-07T01:19:13.077Z,100321.25
2022-11-07T01:21:41.997Z,100320.84
2022-11-07T01:24:15.780Z,100317.47
2022-11-07T01:26:44.699Z,100311.38
2022-11-07T01:29:11.637Z,100309.56
2022-11-07T01:31:38.531Z,100315.59
2022-11-07T01:34:08.605Z,100315.00
2022-11-07T01:36:35.905Z,100315.06
2022-11-07T01:39:06.299Z,100321.00
2022-11-07T01:41:40.052Z,100321.19
2022-11-07T01:44:06.899Z,100320.59
2022-11-07T01:46:41.638Z,100314.56
2022-11-07T01:49:36.021Z,100327.09
2022-11-07T01:52:15.902Z,100316.38
2022-11-07T01:54:55.602Z,100322.56
2022-11-07T01:57:49.067Z,100322.91
2022-11-07T02:00:20.440Z,100322.47
2022-11-07T02:02:52.786Z,100326.25
2022-11-07T02:05:38.048Z,100321.75
2022-11-07T02:08:08.109Z,100311.72
2022-11-07T02:10:38.556Z,100317.22
2022-11-07T02:13:09.553Z,100315.06
2022-11-07T02:15:39.593Z,100324.63
2022-11-07T02:18:10.977Z,100322.69
2022-11-07T02:20:38.017Z,100317.81
2022-11-07T02:23:13.875Z,100315.81
2022-11-07T02:25:43.426Z,100307.25
2022-11-07T02:28:14.544Z,100319.50
2022-11-07T02:30:41.369Z,100309.38
2022-11-07T02:33:23.528Z,100313.63
2022-11-07T02:35:52.611Z,100317.50
2022-11-07T02:38:31.612Z,100309.91
2022-11-07T02:41:12.368Z,100307.38
2022-11-07T02:43:48.830Z,100303.13
2022-11-07T02:46:21.991Z,100317.22
2022-11-07T02:48:53.686Z,100313.94
2022-11-07T02:51:23.139Z,100312.75
2022-11-07T02:53:55.748Z,100314.25
2022-11-07T02:56:23.491Z,100317.22
2022-11-07T02:58:52.891Z,100312.19
2022-11-07T03:01:20.754Z,100332.31
2022-11-07T03:03:51.583Z,100322.06
2022-11-07T03:06:22.627Z,100322.06
2022-11-07T03:08:52.848Z,100321.00
2022-11-07T03:11:22.854Z,100319.06
2022-11-07T03:13:50.844Z,100326.59
2022-11-07T03:16:19.554Z,100318.44
2022-11-07T03:18:46.696Z,100322.63
2022-11-07T03:21:14.328Z,100334.81
2022-11-07T03:23:41.164Z,100319.09
2022-11-07T03:26:10.266Z,100326.66
2022-11-07T03:28:40.161Z,100327.91
2022-11-07T03:31:06.977Z,100328.28
2022-11-07T03:33:38.527Z,100336.25
2022-11-07T03:36:06.032Z,100338.41
2022-11-07T03:38:35.473Z,100328.84
2022-11-07T03:41:02.349Z,100333.16
2022-11-07T03:43:34.287Z,100347.25
2022-11-07T03:46:01.219Z,100340.38
2022-11-07T03:48:28.064Z,100341.13
2022-11-07T03:50:59.474Z,100333.16
2022-11-07T03:53:26.828Z,100339.44
2022-11-07T03:55:57.572Z,100345.16
2022-11-07T03:58:29.534Z,100350.69
2022-11-07T04:01:01.218Z,100353.88
2022-11-07T04:03:28.352Z,100354.47
2022-11-07T04:05:57.455Z,100350.16
2022-11-07T04:08:26.782Z,100350.44
2022-11-07T04:10:58.465Z,100354.84
2022-11-07T04:13:43.553Z,100348.81
2022-11-07T04:16:32.357Z,100353.22
2022-11-07T04:19:02.149Z,100347.06
2022-11-07T04:21:29.018Z,100355.00
2022-11-07T04:23:55.834Z,100342.06
2022-11-07T04:26:45.921Z,100341.22
2022-11-07T04:29:12.864Z,100339.34
2022-11-07T04:31:39.868Z,100351.59
2022-11-07T04:34:09.014Z,100352.47
2022-11-07T04:36:36.359Z,100355.47
2022-11-07T04:39:03.500Z,100342.34
2022-11-07T04:41:33.473Z,100350.13
2022-11-07T04:44:03.030Z,100342.81
2022-11-07T04:46:30.074Z,100355.19
2022-11-07T04:48:59.228Z,100348.28
2022-11-07T04:51:26.300Z,100353.53
2022-11-07T04:53:53.353Z,100355.88
2022-11-07T04:56:20.476Z,100358.50
2022-11-07T04:58:49.698Z,100356.19
2022-11-07T05:01:16.557Z,100356.31
2022-11-07T05:03:43.510Z,100363.53
2022-11-07T05:06:14.439Z,100358.06
2022-11-07T05:08:41.573Z,100354.59
2022-11-07T05:11:08.698Z,100357.69
2022-11-07T05:13:35.695Z,100349.81
2022-11-07T05:16:05.276Z,100353.41
2022-11-07T05:18:34.455Z,100350.69
2022-11-07T05:21:01.352Z,100357.78
2022-11-07T05:23:28.648Z,100348.31
2022-11-07T05:25:58.780Z,100354.22
2022-11-07T05:28:38.664Z,100350.19
2022-11-07T05:31:08.557Z,100351.31
2022-11-07T05:33:36.254Z,100345.31
2022-11-07T05:36:22.104Z,100354.19
2022-11-07T05:38:53.126Z,100348.97
2022-11-07T05:41:22.779Z,100352.41
2022-11-07T05:43:49.832Z,100371.28
2022-11-07T05:46:19.508Z,100371.78
2022-11-07T05:48:46.586Z,100377.22
2022-11-07T05:51:13.806Z,100377.69
2022-11-07T05:53:40.853Z,100374.44
2022-11-07T05:56:08.005Z,100379.72
2022-11-07T05:58:39.563Z,100374.88
2022-11-07T06:01:08.498Z,100370.19
2022-11-07T06:03:35.516Z,100386.56
2022-11-07T06:06:05.222Z,100375.81
2022-11-07T06:08:34.718Z,100382.16
2022-11-07T06:11:09.285Z,100388.38
2022-11-07T06:13:39.356Z,100386.31
2022-11-07T06:16:09.889Z,100393.06
2022-11-07T06:18:41.781Z,100401.28
2022-11-07T06:21:09.000Z,100397.53
2022-11-07T06:23:35.855Z,100400.06
2022-11-07T06:26:02.781Z,100403.03
2022-11-07T06:28:34.976Z,100398.41
2022-11-07T06:31:03.663Z,100399.16
2022-11-07T06:33:30.996Z,100401.03
2022-11-07T06:36:10.140Z,100409.25
2022-11-07T06:38:41.017Z,100407.88
2022-11-07T06:41:16.493Z,100410.44
2022-11-07T06:43:43.441Z,100410.91
2022-11-07T06:46:13.215Z,100408.91
2022-11-07T06:48:40.552Z,100426.25
2022-11-07T06:51:12.666Z,100417.31
2022-11-07T06:53:42.234Z,100429.19
2022-11-07T06:56:19.029Z,100432.81
2022-11-07T06:58:46.035Z,100436.94
2022-11-07T07:01:17.843Z,100448.28
2022-11-07T07:03:44.908Z,100450.69
2022-11-07T07:06:17.155Z,100456.44
2022-11-07T07:08:45.521Z,100451.75
2022-11-07T07:11:14.750Z,100450.59
2022-11-07T07:13:44.332Z,100460.69
2022-11-07T07:16:13.405Z,100460.88
2022-11-07T07:18:40.207Z,100458.91
2022-11-07T07:21:14.818Z,100457.13
2022-11-07T07:23:44.762Z,100463.41
2022-11-07T07:26:16.339Z,100460.69
2022-11-07T07:28:46.267Z,100461.16
2022-11-07T07:31:18.302Z,100454.56
2022-11-07T07:33:47.704Z,100454.94
2022-11-07T07:36:20.715Z,100458.34
2022-11-07T07:38:51.360Z,100464.25
2022-11-07T07:41:21.919Z,100468.47
2022-11-07T07:43:48.913Z,100463.41
2022-11-07T07:46:20.236Z,100465.53
2022-11-07T07:48:47.191Z,100467.00
2022-11-07T07:51:14.105Z,100478.34
2022-11-07T07:53:41.124Z,100467.25
2022-11-07T07:56:08.458Z,100469.09
2022-11-07T07:58:40.271Z,100475.34
2022-11-07T08:01:10.378Z,100474.16
2022-11-07T08:03:59.809Z,100466.75
2022-11-07T08:06:25.247Z,100464.50
2022-11-07T08:08:52.194Z,100471.31
2022-11-07T08:11:21.618Z,100466.69
2022-11-07T08:13:48.399Z,100455.97
2022-11-07T08:16:21.034Z,100470.22
2022-11-07T08:18:47.841Z,100470.91
2022-11-07T08:21:20.098Z,100458.28
2022-11-07T08:23:47.501Z,100466.88
2022-11-07T08:26:14.298Z,100473.56
2022-11-07T08:28:44.645Z,100481.41
2022-11-07T08:31:14.603Z,100473.19
2022-11-07T08:33:41.694Z,100472.25
2022-11-07T08:36:12.089Z,100473.47
2022-11-07T08:38:38.941Z,100473.59
2022-11-07T08:41:06.209Z,100484.94
2022-11-07T08:43:35.584Z,100474.66
2022-11-07T08:46:04.570Z,100486.56
2022-11-07T08:48:36.715Z,100483.75
2022-11-07T08:51:06.072Z,100482.25
2022-11-07T08:53:33.500Z,100485.63
2022-11-07T08:56:09.111Z,100495.84
2022-11-07T08:58:38.557Z,100496.56
2022-11-07T09:01:09.980Z,100505.63
2022-11-07T09:03:45.538Z,100499.50
2022-11-07T09:06:15.007Z,100509.94
2022-11-07T09:08:44.519Z,100517.13
2022-11-07T09:11:18.899Z,100500.38
2022-11-07T09:13:49.444Z,100506.53
2022-11-07T09:16:21.394Z,100507.88
2022-11-07T09:18:50.165Z,100507.81
2022-11-07T09:21:22.727Z,100506.34
2022-11-07T09:23:53.241Z,100503.59
2022-11-07T09:26:23.668Z,100504.44
2022-11-07T09:28:53.155Z,100504.66
2022-11-07T09:31:27.374Z,100507.56
2022-11-07T09:33:54.301Z,100505.16
2022-11-07T09:36:22.276Z,100501.69
2022-11-07T09:38:57.216Z,100503.97
2022-11-07T09:42:14.777Z,100503.88
2022-11-07T09:44:54.924Z,100510.16
2022-11-07T09:48:02.169Z,100501.75
2022-11-07T09:50:32.063Z,100509.38
2022-11-07T09:53:20.919Z,100511.00
2022-11-07T09:55:59.815Z,100520.94
2022-11-07T09:58:43.796Z,100516.38
2022-11-07T10:01:18.202Z,100514.84
2022-11-07T10:04:23.109Z,100517.47
2022-11-07T10:06:43.122Z,100508.06
2022-11-07T10:09:18.785Z,100520.34
2022-11-07T10:12:07.108Z,100529.13
2022-11-07T10:15:04.231Z,100541.84
2022-11-07T10:17:49.245Z,100524.41
2022-11-07T10:20:36.869Z,100521.28
2022-11-07T10:23:36.174Z,100528.22
2022-11-07T10:26:11.055Z,100538.94
2022-11-07T10:28:48.511Z,100539.16
2022-11-07T10:31:16.262Z,100541.75
2022-11-07T10:33:57.161Z,100525.78
2022-11-07T10:36:31.137Z,100527.63
2022-11-07T10:38:58.484Z,100544.13
2022-11-07T10:41:32.043Z,100552.06
2022-11-07T10:44:09.761Z,100548.06
2022-11-07T10:46:50.134Z,100539.97
2022-11-07T10:49:33.977Z,100535.97
2022-11-07T10:52:24.911Z,100553.56
2022-11-07T10:54:52.269Z,100550.16
2022-11-07T10:57:22.816Z,100556.50
2022-11-07T10:59:52.631Z,100531.81
2022-11-07T11:02:27.295Z,100539.63
2022-11-07T11:05:03.303Z,100544.78
2022-11-07T11:07:48.382Z,100540.09
2022-11-07T11:10:32.065Z,100544.06
2022-11-07T11:12:58.946Z,100547.09
2022-11-07T11:15:35.538Z,100548.41
2022-11-07T11:18:15.418Z,100543.56
2022-11-07T11:21:05.965Z,100534.31
2022-11-07T11:23:42.582Z,100536.59
2022-11-07T11:26:20.815Z,100538.88
2022-11-07T11:29:09.205Z,100546.66
2022-11-07T11:31:49.037Z,100528.59
2022-11-07T11:34:45.197Z,100534.59
2022-11-07T11:37:27.296Z,100539.69
2022-11-07T11:40:02.346Z,100544.59
2022-11-07T11:42:41.315Z,100536.66
2022-11-07T11:45:31.241Z,100546.09
2022-11-07T11:48:38.653Z,100538.00
2022-11-07T11:51:40.116Z,100538.13
2022-11-07T11:54:13.019Z,100540.84
2022-11-07T11:56:58.099Z,100540.88
2022-11-07T11:59:57.586Z,100546.13
2022-11-07T12:02:47.537Z,100546.69
2022-11-07T12:06:20.683Z,100542.22
2022-11-07T12:09:17.057Z,100536.94
2022-11-07T12:11:48.259Z,100535.38
2022-11-07T12:14:52.895Z,100536.19
2022-11-07T12:18:12.078Z,100549.00
2022-11-07T12:21:19.901Z,100541.50
2022-11-07T12:24:04.631Z,100544.25
2022-11-07T12:26:47.179Z,100550.50
2022-11-07T12:29:44.037Z,100547.34
2022-11-07T12:32:32.549Z,100545.44
2022-11-07T12:35:36.612Z,100552.31
2022-11-07T12:38:52.249Z,100543.59
2022-11-07T12:41:56.367Z,100561.44
2022-11-07T12:44:35.238Z,100551.69
2022-11-07T12:47:21.698Z,100555.53
2022-11-07T12:50:06.608Z,100562.44
2022-11-07T12:53:02.645Z,100553.47
2022-11-07T12:55:55.754Z,100549.19
2022-11-07T12:58:37.397Z,100559.19
2022-11-07T13:01:05.399Z,100551.72
2022-11-07T13:03:56.335Z,100555.75
2022-11-07T13:06:49.868Z,100556.78
2022-11-07T13:09:36.383Z,100547.56
2022-11-07T13:12:22.611Z,100544.75
2022-11-07T13:14:52.596Z,100551.81
2022-11-07T13:17:31.596Z,100561.25
2022-11-07T13:20:04.916Z,100550.03
2022-11-07T13:22:38.317Z,100541.53
2022-11-07T13:25:16.769Z,100548.75
2022-11-07T13:27:59.945Z,100555.81
2022-11-07T13:30:29.855Z,100562.50
2022-11-07T13:33:00.561Z,100550.97
2022-11-07T13:35:30.545Z,100549.59
2022-11-07T13:38:19.613Z,100542.91
2022-11-07T13:40:58.461Z,100557.69
2022-11-07T13:43:55.522Z,100554.75
2022-11-07T13:46:37.584Z,100551.81
2022-11-07T13:49:16.831Z,100563.03
2022-11-07T13:51:51.961Z,100570.31
2022-11-07T13:54:33.906Z,100562.63
2022-11-07T13:57:27.553Z,100579.63
2022-11-07T14:00:05.191Z,100574.03
2022-11-07T14:02:35.782Z,100571.72
2022-11-07T14:05:17.729Z,100574.63
2022-11-07T14:08:01.368Z,100560.25
2022-11-07T14:10:44.520Z,100564.91
2022-11-07T14:13:19.944Z,100556.78
2022-11-07T14:16:02.024Z,100559.59
2022-11-07T14:18:34.204Z,100552.22
2022-11-07T14:21:02.210Z,100555.63
2022-11-07T14:23:35.025Z,100561.63
2022-11-07T14:26:19.209Z,100562.06
2022-11-07T14:28:46.415Z,100565.06
2022-11-07T14:31:36.641Z,100558.31
2022-11-07T14:34:25.093Z,100558.38
2022-11-07T14:37:01.635Z,100557.94
2022-11-07T14:39:33.552Z,100555.03
2022-11-07T14:42:03.471Z,100562.00
2022-11-07T14:44:56.228Z,100555.25
2022-11-07T14:47:33.462Z,100557.84
2022-11-07T14:50:02.369Z,100559.97
2022-11-07T14:52:39.843Z,100555.56
2022-11-07T14:55:14.162Z,100569.50
2022-11-07T14:57:46.178Z,100568.41
2022-11-07T15:00:20.479Z,100558.56
2022-11-07T15:02:51.185Z,100563.09
2022-11-07T15:05:41.293Z,100568.34
2022-11-07T15:08:30.049Z,100571.72
2022-11-07T15:11:32.320Z,100567.53
2022-11-07T15:14:04.739Z,100565.06
2022-11-07T15:16:45.619Z,100569.84
2022-11-07T15:19:22.456Z,100565.47
2022-11-07T15:21:57.675Z,100571.81
2022-11-07T15:24:44.524Z,100576.66
2022-11-07T15:27:17.074Z,100587.22
2022-11-07T15:29:57.271Z,100589.91
2022-11-07T15:32:35.536Z,100586.09
2022-11-07T15:35:37.955Z,100591.38
2022-11-07T15:38:04.311Z,100587.72
2022-11-07T15:40:33.499Z,100586.31
2022-11-07T15:43:00.487Z,100591.78
2022-11-07T15:45:27.537Z,100585.66
2022-11-07T15:47:54.492Z,100585.78
2022-11-07T15:50:24.833Z,100590.13
2022-11-07T15:52:53.880Z,100602.31
2022-11-07T15:55:23.088Z,100589.97
2022-11-07T15:57:53.437Z,100593.53
2022-11-07T16:00:24.782Z,100595.09
2022-11-07T16:02:52.218Z,100598.31
2022-11-07T16:05:19.874Z,100608.22
2022-11-07T16:07:47.302Z,100605.25
2022-11-07T16:10:19.613Z,100607.13
2022-11-07T16:12:48.913Z,100605.34
2022-11-07T16:15:21.250Z,100607.88
2022-11-07T16:17:48.696Z,100614.44
2022-11-07T16:20:25.646Z,100609.56
2022-11-07T16:22:55.323Z,100619.25
2022-11-07T16:25:25.826Z,100616.53
2022-11-07T16:28:03.400Z,100616.63
2022-11-07T16:30:33.885Z,100613.25
2022-11-07T16:33:00.909Z,100620.16
2022-11-07T16:35:27.895Z,100608.22
2022-11-07T16:37:55.150Z,100617.44
2022-11-07T16:40:27.104Z,100622.81
2022-11-07T16:42:54.088Z,100618.69
2022-11-07T16:45:22.412Z,100619.75
2022-11-07T16:47:51.816Z,100611.47
2022-11-07T16:50:19.060Z,100618.84
2022-11-07T16:52:48.886Z,100630.25
2022-11-07T16:55:20.901Z,100628.88
2022-11-07T16:57:48.171Z,100631.81
2022-11-07T17:00:23.645Z,100633.19
2022-11-07T17:02:53.108Z,100638.91
2022-11-07T17:05:24.830Z,100647.78
2022-11-07T17:07:55.753Z,100647.00
2022-11-07T17:10:24.945Z,100644.19
2022-11-07T17:12:51.899Z,100648.25
2022-11-07T17:15:18.759Z,100640.72
2022-11-07T17:17:45.762Z,100647.47
2022-11-07T17:20:49.489Z,100645.66
2022-11-07T17:23:11.345Z,100643.56
2022-11-07T17:25:39.191Z,100655.97
2022-11-07T17:28:09.455Z,100657.72
2022-11-07T17:30:36.385Z,100662.38
2022-11-07T17:33:03.561Z,100664.72
2022-11-07T17:35:32.969Z,100662.59
2022-11-07T17:38:02.805Z,100666.94
2022-11-07T17:40:34.503Z,100667.47
2022-11-07T17:43:01.532Z,100662.47
2022-11-07T17:45:31.280Z,100681.66
2022-11-07T17:47:58.221Z,100668.31
2022-11-07T17:50:25.177Z,100666.22
2022-11-07T17:52:54.731Z,100669.84
2022-11-07T17:55:21.668Z,100669.72
2022-11-07T17:57:51.618Z,100668.09
2022-11-07T18:00:24.899Z,100677.56
2022-11-07T18:02:54.892Z,100672.22
2022-11-07T18:05:26.418Z,100670.88
2022-11-07T18:07:58.187Z,100676.31
2022-11-07T18:10:25.061Z,100679.72
2022-11-07T18:12:51.949Z,100677.53
2022-11-07T18:15:24.460Z,100672.75
2022-11-07T18:17:53.457Z,100677.88
2022-11-07T18:20:20.357Z,100678.75
2022-11-07T18:22:49.291Z,100673.03
2022-11-07T18:25:16.223Z,100676.78
2022-11-07T18:27:45.671Z,100680.56
2022-11-07T18:30:15.327Z,100674.91
2022-11-07T18:32:42.739Z,100676.22
2022-11-07T18:35:09.953Z,100676.75
2022-11-07T18:37:39.313Z,100668.28
2022-11-07T18:40:11.555Z,100664.94
2022-11-07T18:42:39.057Z,100665.75
2022-11-07T18:45:06.724Z,100665.63
2022-11-07T18:47:36.337Z,100670.03
2022-11-07T18:50:04.112Z,100672.78
2022-11-07T18:52:31.406Z,100675.06
2022-11-07T18:54:58.407Z,100677.19
2022-11-07T18:57:25.604Z,100685.56
2022-11-07T18:59:52.514Z,100677.31
2022-11-07T19:02:19.467Z,100674.47
2022-11-07T19:04:51.566Z,100675.31
2022-11-07T19:07:21.793Z,100674.34
2022-11-07T19:09:48.812Z,100682.91
2022-11-07T19:12:15.657Z,100676.88
2022-11-07T19:14:44.565Z,100683.44
2022-11-07T19:17:13.433Z,100679.13
2022-11-07T19:19:40.288Z,100684.88
2022-11-07T19:22:12.555Z,100670.78
2022-11-07T19:24:44.132Z,100687.59
2022-11-07T19:27:10.970Z,100685.63
2022-11-07T19:29:42.118Z,100686.91
2022-11-07T19:32:14.042Z,100686.63
2022-11-07T19:34:41.236Z,100685.50
2022-11-07T19:37:11.448Z,100681.34
2022-11-07T19:39:38.499Z,100687.59
2022-11-07T19:42:05.970Z,100694.78
2022-11-07T19:44:34.617Z,100692.91
2022-11-07T19:47:04.461Z,100695.31
2022-11-07T19:49:31.427Z,100695.22
2022-11-07T19:51:58.735Z,100702.25
2022-11-07T19:54:25.593Z,100695.50
2022-11-07T19:56:57.890Z,100694.09
2022-11-07T19:59:25.021Z,100698.09
2022-11-07T20:02:18.037Z,100695.09
2022-11-07T20:04:41.479Z,100690.97
2022-11-07T20:07:08.933Z,100689.78
2022-11-07T20:09:35.880Z,100688.56
2022-11-07T20:12:02.778Z,100698.44
2022-11-07T20:14:29.672Z,100698.50
2022-11-07T20:16:56.549Z,100696.59
2022-11-07T20:19:26.444Z,100693.81
2022-11-07T20:21:55.762Z,100692.00
2022-11-07T20:24:25.282Z,100697.31
2022-11-07T20:26:56.907Z,100700.50
2022-11-07T20:29:23.784Z,100698.78
2022-11-07T20:31:51.033Z,100705.09
2022-11-07T20:34:21.799Z,100694.84
2022-11-07T20:36:53.768Z,100698.25
2022-11-07T20:39:21.283Z,100701.44
2022-11-07T20:41:48.288Z,100695.69
2022-11-07T20:44:16.633Z,100705.75
2022-11-07T20:46:48.253Z,100708.25
2022-11-07T20:49:18.170Z,100708.75
2022-11-07T20:51:45.286Z,100705.72
2022-11-07T20:54:18.608Z,100711.94
2022-11-07T20:56:45.626Z,100711.38
2022-11-07T20:59:14.824Z,100712.88
2022-11-07T21:01:42.507Z,100709.69
2022-11-07T21:04:15.331Z,100711.16
2022-11-07T21:06:47.808Z,100726.03
2022-11-07T21:09:17.324Z,100702.00
2022-11-07T21:11:47.109Z,100714.91
2022-11-07T21:14:14.101Z,100708.91
2022-11-07T21:16:41.126Z,100708.31
2022-11-07T21:19:09.440Z,100711.44
2022-11-07T21:21:36.395Z,100710.69
2022-11-07T21:24:03.933Z,100719.03
2022-11-07T21:26:40.413Z,100714.91
2022-11-07T21:29:11.515Z,100722.06
2022-11-07T21:31:42.830Z,100712.31
2022-11-07T21:34:11.510Z,100716.19
2022-11-07T21:36:38.732Z,100712.16
2022-11-07T21:39:07.461Z,100711.41
2022-11-07T21:41:38.204Z,100716.91
2022-11-07T21:44:05.245Z,100709.06
2022-11-07T21:46:35.049Z,100711.63
2022-11-07T21:49:06.161Z,100710.28
2022-11-07T21:51:38.086Z,100705.47
2022-11-07T21:54:06.564Z,100714.31
2022-11-07T21:56:39.532Z,100712.63
2022-11-07T21:59:09.976Z,100707.88
2022-11-07T22:01:38.683Z,100701.59
2022-11-07T22:04:12.988Z,100716.22
2022-11-07T22:06:43.922Z,100718.16
2022-11-07T22:09:15.371Z,100696.41
2022-11-07T22:11:42.560Z,100698.03
2022-11-07T22:14:14.380Z,100706.09
2022-11-07T22:16:43.443Z,100709.16
2022-11-07T22:19:12.669Z,100708.22
2022-11-07T22:21:40.456Z,100706.31
2022-11-07T22:24:07.978Z,100709.91
2022-11-07T22:26:37.575Z,100713.00
2022-11-07T22:29:04.525Z,100690.69
2022-11-07T22:31:32.099Z,100697.53
2022-11-07T22:34:00.960Z,100699.19
2022-11-07T22:36:29.139Z,100702.09
2022-11-07T22:38:57.891Z,100704.72
2022-11-07T22:41:27.462Z,100702.63
2022-11-07T22:43:57.661Z,100704.84
2022-11-07T22:46:29.206Z,100699.31
2022-11-07T22:48:59.091Z,100697.72
2022-11-07T22:51:33.983Z,100694.47
2022-11-07T22:54:07.362Z,100700.44
2022-11-07T22:56:38.693Z,100685.25
2022-11-07T22:59:08.422Z,100698.47
2022-11-07T23:01:41.111Z,100701.66
2022-11-07T23:04:14.024Z,100693.53
2022-11-07T23:06:43.397Z,100693.84
2022-11-07T23:09:15.046Z,100692.78
2022-11-07T23:11:47.539Z,100690.22
2022-11-07T23:14:19.715Z,100696.97
2022-11-07T23:16:53.768Z,100687.81
2022-11-07T23:19:24.968Z,100692.25
2022-11-07T23:21:56.538Z,100696.56
2022-11-07T23:24:23.824Z,100687.31
2022-11-07T23:26:57.904Z,100693.31
2022-11-07T23:29:29.548Z,100690.72
2022-11-07T23:31:56.567Z,100688.69
2022-11-07T23:34:23.512Z,100684.47
2022-11-07T23:36:54.908Z,100682.69
2022-11-07T23:39:23.365Z,100686.31
2022-11-07T23:41:50.504Z,100673.56
2022-11-07T23:44:17.698Z,100674.09
2022-11-07T23:47:04.034Z,100671.75
2022-11-07T23:49:36.337Z,100675.13
2022-11-07T23:52:04.489Z,100675.53
2022-11-07T23:54:50.392Z,100688.50
2022-11-07T23:57:20.363Z,100682.03
